Time;durP1;ratioP1;P1;durP2;ratioP2;P2;SDS_P1;SDS_P2;PMS_P1;PMS_P2;Temp;Humidity;BMP_temperature;BMP_pressure;BME280_temperature;BME280_humidity;BME280_pressure;Samples;Min_cycle;Max_cycle;Signal;HPM_P1;HPM_P2
2022/07/07 00:02:02;;;;;;;11.02;9.88;;;;;;;17.11;100.00;94983.47;4971012;28;20558;-69
2022/07/07 00:04:29;;;;;;;12.02;10.50;;;;;;;17.08;100.00;94989.25;4979432;28;20136;-69
2022/07/07 00:06:56;;;;;;;11.45;10.20;;;;;;;16.95;100.00;94996.66;4980203;28;20060;-69
2022/07/07 00:09:23;;;;;;;12.88;11.48;;;;;;;16.93;100.00;95005.88;4978328;28;20105;-69
2022/07/07 00:11:50;;;;;;;13.88;12.40;;;;;;;16.87;100.00;95005.09;4970917;28;20038;-69
2022/07/07 00:14:17;;;;;;;15.25;13.13;;;;;;;16.77;100.00;94989.28;4979893;28;20054;-69
2022/07/07 00:16:44;;;;;;;13.65;11.95;;;;;;;16.78;100.00;95006.63;4976896;28;20428;-68
2022/07/07 00:19:11;;;;;;;12.50;11.23;;;;;;;16.76;100.00;95003.47;4980430;28;20109;-69
2022/07/07 00:21:38;;;;;;;13.80;11.38;;;;;;;16.74;100.00;95005.59;4977174;28;20042;-69
2022/07/07 00:24:05;;;;;;;10.35;9.25;;;;;;;16.81;100.00;95003.47;4972357;28;20053;-69
2022/07/07 00:26:33;;;;;;;10.98;9.57;;;;;;;16.82;100.00;95005.06;4969057;28;20526;-69
2022/07/07 00:29:00;;;;;;;10.13;9.07;;;;;;;16.77;100.00;94994.56;4967207;28;20039;-69
2022/07/07 00:31:27;;;;;;;12.57;9.93;;;;;;;16.87;100.00;94999.84;4967070;28;21337;-69
2022/07/07 00:33:54;;;;;;;11.43;10.20;;;;;;;16.85;100.00;95001.91;4970077;28;20048;-68
2022/07/07 00:36:21;;;;;;;12.00;10.68;;;;;;;16.88;100.00;95006.66;4972215;28;20058;-68
2022/07/07 00:38:48;;;;;;;9.88;8.88;;;;;;;16.88;100.00;94988.25;4977882;28;20042;-69
2022/07/07 00:41:15;;;;;;;14.70;9.38;;;;;;;16.87;100.00;94984.06;4980675;28;20444;-69
2022/07/07 00:43:43;;;;;;;10.07;9.07;;;;;;;16.80;100.00;94978.25;4976865;28;20050;-68
2022/07/07 00:46:12;;;;;;;10.63;9.55;;;;;;;16.78;100.00;94990.84;4979276;28;20448;-70
2022/07/07 00:48:40;;;;;;;11.23;9.40;;;;;;;16.78;100.00;94986.41;4977822;28;20113;-70
2022/07/07 00:51:11;;;;;;;10.27;9.25;;;;;;;16.69;100.00;94982.75;4979276;28;20520;-70
2022/07/07 00:53:39;;;;;;;11.43;10.00;;;;;;;16.62;100.00;94982.22;4972812;28;20607;-69
2022/07/07 00:56:07;;;;;;;11.32;10.18;;;;;;;16.60;100.00;94985.13;4978305;28;20062;-69
2022/07/07 00:58:34;;;;;;;11.18;9.80;;;;;;;16.54;100.00;94977.47;4976286;28;20046;-69
2022/07/07 01:01:02;;;;;;;11.57;9.68;;;;;;;16.49;100.00;94975.63;4981006;28;20696;-69
2022/07/07 01:03:29;;;;;;;12.63;10.02;;;;;;;16.46;100.00;94973.56;4976365;28;20447;-69
2022/07/07 01:05:58;;;;;;;12.85;10.55;;;;;;;16.35;100.00;94961.44;5009502;28;20055;-69
2022/07/07 01:08:26;;;;;;;11.30;9.45;;;;;;;16.35;100.00;94978.03;5000096;28;20132;-69
2022/07/07 01:10:53;;;;;;;11.93;10.02;;;;;;;16.27;100.00;94980.38;4975326;28;20044;-70
2022/07/07 01:13:20;;;;;;;13.77;10.52;;;;;;;16.20;100.00;94986.69;4991912;28;20043;-70
2022/07/07 01:15:47;;;;;;;13.77;9.95;;;;;;;16.19;100.00;94979.84;4993962;28;20042;-70
2022/07/07 01:18:14;;;;;;;11.23;10.05;;;;;;;16.17;100.00;94981.16;4994080;28;20095;-70
2022/07/07 01:20:45;;;;;;;11.85;10.65;;;;;;;16.14;100.00;94982.47;4996428;28;20052;-70
2022/07/07 01:23:14;;;;;;;10.85;9.75;;;;;;;16.08;100.00;94982.72;4979217;28;20049;-71
2022/07/07 01:25:41;;;;;;;12.38;10.55;;;;;;;16.04;100.00;94982.47;4992959;28;20045;-70
2022/07/07 01:28:08;;;;;;;11.30;9.88;;;;;;;15.86;100.00;94950.41;4996739;28;20056;-70
2022/07/07 01:30:36;;;;;;;12.20;10.90;;;;;;;16.04;100.00;94977.22;4985048;28;20045;-70
2022/07/07 01:33:03;;;;;;;10.77;9.35;;;;;;;16.05;100.00;94973.53;4987818;28;20518;-70
2022/07/07 01:35:30;;;;;;;10.80;9.48;;;;;;;16.10;100.00;94978.81;4984328;28;20052;-71
2022/07/07 01:37:57;;;;;;;12.57;9.93;;;;;;;16.06;100.00;94977.72;4985687;28;20042;-69
2022/07/07 01:40:24;;;;;;;14.15;10.05;;;;;;;16.11;100.00;94983.00;4998499;28;20615;-70
2022/07/07 01:42:51;;;;;;;11.20;10.05;;;;;;;16.11;100.00;94988.25;4993702;28;20431;-68
2022/07/07 01:45:18;;;;;;;11.73;10.30;;;;;;;16.13;100.00;94980.88;4996674;28;20053;-68
2022/07/07 01:47:44;;;;;;;17.25;9.90;;;;;;;16.14;100.00;94982.47;4997788;28;20056;-68
2022/07/07 01:50:11;;;;;;;11.10;9.95;;;;;;;16.16;100.00;94984.84;4995786;28;20034;-68
2022/07/07 01:52:38;;;;;;;12.85;10.75;;;;;;;16.12;100.00;94976.69;4992838;28;20046;-68
2022/07/07 01:55:06;;;;;;;14.23;10.50;;;;;;;16.09;100.00;94979.84;4997431;28;20690;-69
2022/07/07 01:57:32;;;;;;;12.45;10.70;;;;;;;16.04;100.00;94983.28;4993421;28;20046;-69
2022/07/07 01:59:59;;;;;;;13.35;11.07;;;;;;;15.89;100.00;94969.31;4995665;28;20038;-70
2022/07/07 02:02:26;;;;;;;11.98;10.60;;;;;;;15.91;100.00;94977.72;4994655;28;20041;-70
2022/07/07 02:04:53;;;;;;;11.20;9.82;;;;;;;15.86;100.00;94984.56;4980378;28;20483;-70
2022/07/07 02:07:20;;;;;;;11.48;10.27;;;;;;;15.80;100.00;94988.19;4996649;28;20046;-69
2022/07/07 02:09:47;;;;;;;11.52;10.27;;;;;;;15.75;100.00;94974.28;4979418;28;20050;-70
2022/07/07 02:12:14;;;;;;;18.70;11.63;;;;;;;15.76;100.00;94979.28;4996676;28;20057;-70
2022/07/07 02:14:41;;;;;;;16.33;10.65;;;;;;;15.75;100.00;94979.53;4992690;28;20053;-69
2022/07/07 02:17:08;;;;;;;12.68;9.95;;;;;;;15.74;100.00;94983.19;4993901;28;20057;-70
2022/07/07 02:19:35;;;;;;;11.25;9.80;;;;;;;15.65;100.00;94980.28;4985224;28;20034;-70
2022/07/07 02:22:01;;;;;;;11.63;10.32;;;;;;;15.63;100.00;94985.00;4986625;28;20138;-69
2022/07/07 02:24:28;;;;;;;12.35;11.05;;;;;;;15.63;100.00;94977.91;4989983;28;20054;-69
2022/07/07 02:26:55;;;;;;;11.82;10.50;;;;;;;15.60;100.00;94978.41;4997052;28;20053;-70
2022/07/07 02:29:22;;;;;;;14.82;11.55;;;;;;;15.57;100.00;94978.13;4992599;28;20042;-69
2022/07/07 02:31:49;;;;;;;12.48;10.95;;;;;;;15.42;100.00;94982.28;4986478;28;20057;-69
2022/07/07 02:34:16;;;;;;;13.38;11.35;;;;;;;15.29;100.00;94982.78;4997611;28;20109;-69
2022/07/07 02:36:43;;;;;;;12.88;10.25;;;;;;;15.28;100.00;94989.06;4997445;28;20053;-69
2022/07/07 02:39:10;;;;;;;11.68;10.05;;;;;;;15.28;100.00;94981.19;4996126;28;20038;-68
2022/07/07 02:41:37;;;;;;;13.45;10.35;;;;;;;15.29;100.00;94985.41;4995925;28;20038;-69
2022/07/07 02:44:04;;;;;;;10.63;9.48;;;;;;;15.29;100.00;94977.53;4992263;28;20045;-69
2022/07/07 02:46:31;;;;;;;20.10;11.05;;;;;;;15.27;100.00;94983.03;4995016;28;20038;-68
2022/07/07 02:48:58;;;;;;;18.85;10.63;;;;;;;15.25;100.00;94986.94;4991650;28;20050;-69
2022/07/07 02:51:25;;;;;;;11.52;10.02;;;;;;;15.15;100.00;94976.41;4996902;28;20041;-68
2022/07/07 02:53:52;;;;;;;14.10;10.50;;;;;;;15.23;100.00;94989.03;4997369;28;20044;-69
2022/07/07 02:56:19;;;;;;;14.02;9.93;;;;;;;15.26;100.00;94984.06;4999302;28;20038;-69
2022/07/07 02:58:46;;;;;;;13.95;10.43;;;;;;;15.32;100.00;94984.09;5002646;28;20056;-68
2022/07/07 03:01:13;;;;;;;11.70;9.90;;;;;;;15.37;100.00;94984.91;4994561;28;20061;-69
2022/07/07 03:03:40;;;;;;;15.38;10.45;;;;;;;15.42;100.00;94987.53;4992364;28;20104;-69
2022/07/07 03:06:07;;;;;;;13.40;9.65;;;;;;;15.52;100.00;94991.25;4999818;28;20659;-69
2022/07/07 03:08:33;;;;;;;12.35;10.35;;;;;;;15.57;100.00;94993.88;4999608;28;20103;-69
2022/07/07 03:11:01;;;;;;;14.98;10.10;;;;;;;15.60;100.00;94993.38;4994360;28;20046;-70
2022/07/07 03:13:28;;;;;;;12.07;9.98;;;;;;;15.65;100.00;94990.78;5001459;28;20538;-70
2022/07/07 03:15:56;;;;;;;13.18;10.00;;;;;;;15.70;100.00;94998.69;4999690;28;20096;-69
2022/07/07 03:18:23;;;;;;;17.08;10.18;;;;;;;15.72;100.00;94993.13;4999607;28;20060;-69
2022/07/07 03:20:51;;;;;;;10.73;9.57;;;;;;;15.79;100.00;95005.03;5001678;28;20038;-69
2022/07/07 03:23:18;;;;;;;13.10;9.20;;;;;;;15.89;100.00;94998.22;4997661;28;20049;-68
2022/07/07 03:25:45;;;;;;;12.45;9.35;;;;;;;15.96;100.00;94998.75;4999017;28;20069;-68
2022/07/07 03:28:12;;;;;;;14.95;9.15;;;;;;;16.02;100.00;95005.59;4998588;28;20042;-68
2022/07/07 03:30:39;;;;;;;10.02;8.55;;;;;;;16.04;100.00;94995.59;5001393;28;20489;-68
2022/07/07 03:33:07;;;;;;;9.95;8.60;;;;;;;16.17;100.00;94997.72;4999933;28;20046;-68
2022/07/07 03:35:34;;;;;;;10.77;8.95;;;;;;;16.17;100.00;94997.72;5000719;28;20056;-69
2022/07/07 03:38:01;;;;;;;11.38;9.05;;;;;;;16.17;100.00;94997.72;4998546;28;20534;-69
2022/07/07 03:40:28;;;;;;;12.43;10.18;;;;;;;16.19;100.00;94995.63;4979306;28;20069;-69
2022/07/07 03:42:55;;;;;;;11.70;8.98;;;;;;;16.20;100.00;95001.66;4997657;28;20045;-69
2022/07/07 03:45:22;;;;;;;10.50;8.95;;;;;;;16.21;100.00;94998.78;4999819;28;20050;-69
2022/07/07 03:47:50;;;;;;;10.38;8.75;;;;;;;16.31;100.00;95002.47;4999718;28;20514;-69
2022/07/07 03:50:17;;;;;;;12.13;9.05;;;;;;;16.39;100.00;95009.81;4999756;28;20538;-69
2022/07/07 03:52:44;;;;;;;13.02;8.30;;;;;;;16.47;100.00;95011.91;4976992;28;20058;-69
2022/07/07 03:55:11;;;;;;;12.57;9.13;;;;;;;16.56;100.00;95012.97;4986506;28;20961;-70
2022/07/07 03:57:38;;;;;;;11.48;10.18;;;;;;;16.67;100.00;95005.06;4991969;28;20534;-69
2022/07/07 04:00:06;;;;;;;13.88;9.65;;;;;;;16.70;100.00;95007.19;4994902;28;20121;-69
2022/07/07 04:02:36;;;;;;;10.13;8.90;;;;;;;16.80;100.00;95007.97;4995533;28;20041;-69
2022/07/07 04:05:04;;;;;;;19.23;9.90;;;;;;;16.87;100.00;95005.09;4984579;28;20866;-69
2022/07/07 04:07:33;;;;;;;9.57;8.48;;;;;;;17.01;100.00;95005.31;4993293;28;20061;-69
2022/07/07 04:10:05;;;;;;;10.65;9.27;;;;;;;17.10;100.00;95002.94;4994082;28;20034;-69
2022/07/07 04:12:32;;;;;;;11.05;9.43;;;;;;;17.11;100.00;95005.28;4990666;28;20389;-68
2022/07/07 04:14:59;;;;;;;10.15;8.10;;;;;;;17.16;100.00;95020.28;4996068;28;20046;-69
2022/07/07 04:17:26;;;;;;;14.23;7.60;;;;;;;17.20;100.00;95023.97;4993750;28;20431;-69
2022/07/07 04:19:53;;;;;;;9.77;8.05;;;;;;;17.24;100.00;95024.22;4994260;28;20042;-69
2022/07/07 04:22:20;;;;;;;8.68;7.78;;;;;;;17.26;100.00;95012.34;4989538;28;20159;-69
2022/07/07 04:24:47;;;;;;;11.02;7.95;;;;;;;17.32;100.00;95021.00;4996179;28;20053;-69
2022/07/07 04:27:14;;;;;;;12.15;8.00;;;;;;;17.26;100.00;95019.47;4990676;28;20129;-68
2022/07/07 04:29:41;;;;;;;9.68;6.93;;;;;;;17.22;100.00;95021.84;4998347;28;20103;-69
2022/07/07 04:32:08;;;;;;;10.15;6.93;;;;;;;17.22;100.00;95016.59;4996887;28;20901;-69
2022/07/07 04:34:35;;;;;;;7.53;6.63;;;;;;;17.24;100.00;95019.72;4996471;28;20038;-69
2022/07/07 04:37:02;;;;;;;10.18;6.15;;;;;;;17.23;100.00;95026.03;4994138;28;20054;-69
2022/07/07 04:39:29;;;;;;;9.02;7.63;;;;;;;17.25;100.00;95020.50;4993282;28;20129;-68
2022/07/07 04:41:56;;;;;;;7.45;6.63;;;;;;;17.20;100.00;95027.38;4994851;28;20052;-69
2022/07/07 04:44:24;;;;;;;7.78;6.78;;;;;;;17.29;100.00;95016.31;4994541;28;20042;-70
2022/07/07 04:46:52;;;;;;;10.32;6.68;;;;;;;17.30;100.00;95023.13;4994010;28;20143;-70
2022/07/07 04:49:19;;;;;;;9.20;6.82;;;;;;;17.30;100.00;95008.13;4992404;28;20639;-70
2022/07/07 04:51:47;;;;;;;10.10;8.60;;;;;;;17.50;100.00;95027.53;4995795;28;20043;-70
2022/07/07 04:54:14;;;;;;;9.45;7.65;;;;;;;17.57;100.00;95020.13;4977627;28;20038;-70
2022/07/07 04:56:41;;;;;;;7.82;6.63;;;;;;;17.58;100.00;95019.09;4995232;28;20053;-69
2022/07/07 04:59:08;;;;;;;8.48;6.78;;;;;;;17.55;100.00;95022.25;4996210;28;20046;-69
2022/07/07 05:01:36;;;;;;;8.25;6.70;;;;;;;17.61;100.00;95023.81;4994075;28;20034;-69
2022/07/07 05:04:05;;;;;;;8.90;5.88;;;;;;;17.71;100.00;95023.75;4986632;28;20053;-69
2022/07/07 05:06:32;;;;;;;9.05;6.93;;;;;;;17.78;100.00;95024.25;4973811;28;20042;-69
2022/07/07 05:08:59;;;;;;;10.65;8.10;;;;;;;17.81;100.00;95011.59;4973320;28;20051;-69
2022/07/07 05:11:26;;;;;;;9.45;7.10;;;;;;;17.77;100.00;95017.41;4972141;28;20030;-69
2022/07/07 05:13:53;;;;;;;10.57;6.25;;;;;;;17.69;100.00;95002.16;4974032;28;20034;-69
2022/07/07 05:16:20;;;;;;;11.55;7.18;;;;;;;17.94;100.00;95018.94;4977332;28;20054;-69
2022/07/07 05:18:47;;;;;;;9.38;6.55;;;;;;;18.13;100.00;95019.88;4976997;28;20121;-70
2022/07/07 05:21:14;;;;;;;11.48;6.93;;;;;;;18.22;100.00;95016.66;4976358;28;20042;-69
2022/07/07 05:24:53;;;;;;;7.30;5.93;;;;;;;18.28;100.00;95020.84;5037192;27;1314151;-66
2022/07/07 05:27:20;;;;;;;6.97;5.50;;;;;;;18.36;100.00;95017.59;5084935;28;20436;-67
2022/07/07 05:29:46;;;;;;;6.57;5.70;;;;;;;18.47;100.00;95019.09;5084654;28;20043;-67
2022/07/07 05:32:13;;;;;;;8.40;5.53;;;;;;;18.61;100.00;95018.47;5083842;28;20048;-67
2022/07/07 05:34:40;;;;;;;7.10;5.68;;;;;;;18.69;100.00;95020.50;5087235;28;20416;-66
2022/07/07 05:37:07;;;;;;;7.00;5.65;;;;;;;18.85;100.00;95019.34;5080000;28;20505;-67
2022/07/07 05:39:34;;;;;;;9.57;5.80;;;;;;;19.00;100.00;95012.34;5084142;28;20050;-67
2022/07/07 05:42:00;;;;;;;6.72;5.60;;;;;;;19.07;100.00;95020.72;5085864;28;20056;-66
2022/07/07 05:44:27;;;;;;;6.57;5.57;;;;;;;19.20;100.00;95027.97;5066363;28;20032;-67
2022/07/07 05:46:54;;;;;;;6.95;5.53;;;;;;;19.19;100.00;95028.25;5083804;28;20082;-67
2022/07/07 05:49:21;;;;;;;7.72;4.75;;;;;;;19.33;100.00;95033.66;5083552;28;20736;-67
2022/07/07 05:51:48;;;;;;;5.80;4.88;;;;;;;19.37;97.75;95029.38;5084583;28;20051;-67
2022/07/07 05:54:14;;;;;;;5.57;4.93;;;;;;;19.41;98.47;95030.38;5081947;28;20050;-67
2022/07/07 05:56:41;;;;;;;5.00;4.18;;;;;;;19.60;97.54;95033.84;5080476;28;20040;-67
2022/07/07 06:01:24;;;;;;;6.57;4.45;;;;;;;19.58;96.38;95028.06;5096115;27;20135;-67
2022/07/07 06:03:51;;;;;;;5.30;4.72;;;;;;;19.72;97.05;95048.53;5097919;27;20046;-67
2022/07/07 06:06:18;;;;;;;7.63;4.60;;;;;;;19.75;97.89;95035.56;5083597;28;20521;-67
2022/07/07 06:08:45;;;;;;;6.85;4.43;;;;;;;19.77;97.08;95035.28;5098080;28;20040;-67
2022/07/07 06:11:12;;;;;;;6.78;4.35;;;;;;;19.83;96.69;95042.09;5099636;28;20051;-68
2022/07/07 06:13:39;;;;;;;4.90;4.22;;;;;;;19.96;93.51;95041.38;5098744;28;20048;-68
2022/07/07 06:16:06;;;;;;;4.13;3.50;;;;;;;20.04;93.49;95038.09;5102224;28;20039;-68
2022/07/07 06:18:32;;;;;;;7.57;4.28;;;;;;;20.19;92.58;95044.25;5101071;28;20066;-68
2022/07/07 06:20:59;;;;;;;7.22;4.40;;;;;;;20.22;91.82;95048.94;5098052;28;20032;-68
2022/07/07 06:23:26;;;;;;;5.95;4.05;;;;;;;20.24;91.43;95046.81;5098122;28;20512;-68
2022/07/07 06:25:54;;;;;;;6.05;4.40;;;;;;;20.30;93.05;95044.88;5098748;28;20543;-68
2022/07/07 06:28:21;;;;;;;6.13;4.72;;;;;;;20.41;90.76;95046.31;5084308;28;20059;-68
2022/07/07 06:30:52;;;;;;;5.30;4.15;;;;;;;20.49;89.42;95056.25;5098472;28;20043;-68
2022/07/07 06:33:19;;;;;;;5.03;3.55;;;;;;;20.65;89.35;95056.03;5098759;28;20166;-68
2022/07/07 06:35:46;;;;;;;4.93;3.63;;;;;;;20.67;88.25;95059.16;5097373;28;20046;-68
2022/07/07 06:38:13;;;;;;;4.20;3.63;;;;;;;20.68;87.48;95058.88;5101589;28;20054;-68
2022/07/07 06:40:39;;;;;;;6.25;4.05;;;;;;;20.69;87.95;95041.94;5099458;28;20039;-68
2022/07/07 06:43:06;;;;;;;5.72;4.13;;;;;;;20.81;87.27;95050.22;5099512;28;20054;-68
2022/07/07 06:45:33;;;;;;;6.65;2.97;;;;;;;21.01;86.70;95058.84;5079520;28;20044;-68
2022/07/07 06:48:00;;;;;;;5.30;3.80;;;;;;;21.16;85.71;95060.47;5099135;28;20040;-68
2022/07/07 06:50:27;;;;;;;4.32;3.90;;;;;;;21.30;86.05;95049.88;5098067;28;20720;-68
2022/07/07 06:52:54;;;;;;;3.90;3.38;;;;;;;21.48;84.53;95045.59;5078928;28;20032;-68
2022/07/07 06:55:21;;;;;;;6.15;3.50;;;;;;;21.48;86.22;95035.00;5098637;28;20043;-68
2022/07/07 06:57:48;;;;;;;4.10;3.63;;;;;;;21.55;84.41;95030.91;5077944;28;20039;-67
2022/07/07 07:00:15;;;;;;;3.72;3.20;;;;;;;21.66;83.34;95036.78;5099852;28;20802;-68
2022/07/07 07:02:44;;;;;;;5.47;3.42;;;;;;;21.80;83.73;95036.75;5096804;28;20564;-67
2022/07/07 07:05:12;;;;;;;3.28;2.72;;;;;;;21.79;80.39;95040.50;5100412;28;20052;-68
2022/07/07 07:07:39;;;;;;;3.95;3.15;;;;;;;21.86;75.06;95040.88;5095625;28;20039;-68
2022/07/07 07:10:07;;;;;;;10.50;3.25;;;;;;;21.98;77.67;95036.91;5098371;28;20584;-68
2022/07/07 07:12:34;;;;;;;7.20;2.90;;;;;;;22.12;75.92;95042.97;5068888;28;20688;-69
2022/07/07 07:15:03;;;;;;;6.70;3.03;;;;;;;21.89;72.98;95013.75;5064244;28;20040;-76
2022/07/07 07:17:31;;;;;;;4.70;2.60;;;;;;;22.12;72.73;95040.31;5082845;28;20494;-71
2022/07/07 07:19:58;;;;;;;3.65;2.42;;;;;;;22.32;69.87;95041.78;5086646;28;20503;-73
2022/07/07 07:22:25;;;;;;;2.30;1.95;;;;;;;22.33;71.49;95046.78;5085630;28;20051;-71
2022/07/07 07:24:52;;;;;;;3.55;3.00;;;;;;;22.31;68.87;95046.31;5086384;28;20044;-69
2022/07/07 07:27:19;;;;;;;5.43;2.40;;;;;;;22.47;68.13;95037.97;5086662;28;20070;-69
2022/07/07 07:29:46;;;;;;;2.50;2.20;;;;;;;22.62;64.90;95040.28;5082830;28;20040;-68
2022/07/07 07:32:13;;;;;;;2.67;2.35;;;;;;;22.75;62.95;95037.88;5090971;28;20425;-69
2022/07/07 07:34:40;;;;;;;2.83;1.98;;;;;;;22.68;62.56;95038.28;5065339;28;20093;-68
2022/07/07 07:37:06;;;;;;;4.68;2.97;;;;;;;22.96;63.98;95054.06;5098012;27;20040;-68
2022/07/07 07:39:34;;;;;;;3.88;2.65;;;;;;;23.14;62.18;95039.84;5062276;28;21507;-68
2022/07/07 07:42:00;;;;;;;4.13;2.33;;;;;;;23.22;61.79;95035.66;5086117;28;20156;-69
2022/07/07 07:47:13;;;;;;;3.13;2.30;;;;;;;23.08;62.94;95035.72;5086987;28;20044;-67
2022/07/07 07:49:40;;;;;;;2.30;1.92;;;;;;;23.05;61.69;95031.81;5083858;28;20058;-69
2022/07/07 07:52:07;;;;;;;2.20;2.00;;;;;;;23.25;60.32;95041.13;5076495;28;20040;-71
2022/07/07 07:54:34;;;;;;;5.07;2.53;;;;;;;22.97;60.45;95029.84;5081564;28;20044;-66
2022/07/07 07:57:01;;;;;;;2.22;1.88;;;;;;;23.04;60.62;95029.44;5088311;28;20048;-66
2022/07/07 07:59:28;;;;;;;2.40;2.20;;;;;;;23.07;60.38;95034.94;5080071;28;20040;-65
2022/07/07 08:01:55;;;;;;;2.35;2.00;;;;;;;23.34;59.08;95035.84;5078100;28;20052;-65
2022/07/07 08:04:22;;;;;;;4.32;2.95;;;;;;;23.37;59.04;95037.91;5083661;28;20044;-65
2022/07/07 08:06:49;;;;;;;2.70;2.03;;;;;;;23.30;59.17;95040.22;5082259;28;20051;-70
2022/07/07 08:09:16;;;;;;;2.80;2.50;;;;;;;23.41;60.42;95038.84;5049634;28;20058;-70
2022/07/07 08:11:43;;;;;;;2.83;2.47;;;;;;;23.39;58.90;95024.28;5080548;28;20043;-71
2022/07/07 08:14:10;;;;;;;2.83;2.30;;;;;;;23.67;59.43;95043.47;5067575;28;20040;-72
2022/07/07 08:16:37;;;;;;;2.67;2.45;;;;;;;23.88;59.25;95040.25;5084532;28;20080;-73
2022/07/07 08:19:04;;;;;;;3.42;2.28;;;;;;;24.08;57.06;95039.66;5066947;28;20044;-72
2022/07/07 08:21:31;;;;;;;2.58;2.22;;;;;;;24.12;57.17;95040.59;5082545;28;20047;-72
2022/07/07 08:23:58;;;;;;;5.93;2.30;;;;;;;24.30;56.86;95030.75;5084659;28;20054;-72
2022/07/07 08:26:26;;;;;;;4.60;2.03;;;;;;;24.32;57.05;95025.13;5084410;28;20046;-72
2022/07/07 08:28:53;;;;;;;2.58;2.17;;;;;;;24.45;57.19;95042.78;5082084;28;20754;-73
2022/07/07 08:31:19;;;;;;;3.78;2.08;;;;;;;24.60;56.19;95039.69;5062794;28;20668;-72
2022/07/07 08:33:46;;;;;;;2.92;2.28;;;;;;;24.72;54.79;95041.72;5081535;28;20043;-71
2022/07/07 08:36:13;;;;;;;4.05;2.58;;;;;;;24.90;55.96;95034.50;5067314;28;20198;-71
2022/07/07 08:38:40;;;;;;;4.53;2.60;;;;;;;24.56;53.41;95033.44;5062555;28;20043;-71
2022/07/07 08:41:07;;;;;;;2.45;2.10;;;;;;;24.50;55.94;95041.88;5087995;28;20051;-68
2022/07/07 08:43:34;;;;;;;4.45;2.28;;;;;;;24.42;54.26;95040.78;5078498;28;20040;-69
2022/07/07 08:46:02;;;;;;;8.88;2.75;;;;;;;24.45;54.40;95040.13;5087748;28;20048;-69
2022/07/07 08:48:29;;;;;;;3.88;2.10;;;;;;;24.60;54.28;95047.69;5083766;28;20040;-68
2022/07/07 08:50:58;;;;;;;4.78;2.35;;;;;;;24.76;54.12;95061.28;5062603;28;20128;-68
2022/07/07 08:53:27;;;;;;;3.85;2.40;;;;;;;24.67;52.68;95051.72;5086692;28;20089;-68
2022/07/07 08:56:05;;;;;;;2.63;2.13;;;;;;;24.68;51.68;95042.66;5084116;28;20855;-69
2022/07/07 08:58:35;;;;;;;4.05;2.30;;;;;;;24.80;51.93;95035.59;5084663;28;21416;-68
2022/07/07 09:01:22;;;;;;;3.45;2.25;;;;;;;24.95;54.44;95039.63;5067072;28;20108;-68
2022/07/07 09:03:49;;;;;;;3.78;2.40;;;;;;;24.90;52.41;95042.47;5066736;28;20051;-68
2022/07/07 09:06:19;;;;;;;5.18;2.33;;;;;;;25.28;54.67;95033.78;5080038;28;20059;-68
2022/07/07 09:08:50;;;;;;;;;;;;;;;25.46;49.34;95031.03;5071701;28;20594;-68
2022/07/07 09:11:28;;;;;;;4.95;2.40;;;;;;;25.63;50.58;95036.28;5082774;28;19924;-68
2022/07/07 09:14:13;;;;;;;2.53;2.33;;;;;;;25.91;51.13;95041.13;5080767;28;20040;-68
2022/07/07 09:16:41;;;;;;;5.70;2.20;;;;;;;25.95;48.48;95042.09;5074955;28;20070;-67
2022/07/07 09:19:19;;;;;;;2.03;1.83;;;;;;;25.75;47.46;95044.38;5060895;28;20056;-68
2022/07/07 09:21:48;;;;;;;3.38;2.20;;;;;;;26.06;47.25;95037.94;5081098;28;20757;-68
2022/07/07 09:24:16;;;;;;;3.03;1.60;;;;;;;26.37;43.30;95036.75;5081993;28;20054;-68
2022/07/07 09:26:44;;;;;;;1.40;1.30;;;;;;;26.82;41.12;95025.38;5076391;28;20040;-68
2022/07/07 09:29:13;;;;;;;1.73;1.40;;;;;;;27.01;40.30;95037.47;5081786;28;20043;-68
2022/07/07 09:31:55;;;;;;;1.45;1.35;;;;;;;26.93;39.30;95035.66;5075342;28;20044;-68
2022/07/07 09:34:27;;;;;;;1.13;1.02;;;;;;;26.26;39.43;95014.25;5078539;28;20566;-67
2022/07/07 09:39:56;;;;;;;2.35;1.65;;;;;;;25.68;42.53;95038.00;5051444;28;20152;-67
2022/07/07 09:42:38;;;;;;;4.18;1.60;;;;;;;26.10;41.52;95022.84;5078795;28;20109;-67
2022/07/07 09:45:11;;;;;;;1.23;0.95;;;;;;;26.29;40.28;95034.97;5076485;28;20040;-70
2022/07/07 09:47:38;;;;;;;1.52;1.27;;;;;;;26.48;39.82;95029.91;5074048;28;20036;-72
2022/07/07 09:50:15;;;;;;;1.95;1.40;;;;;;;26.49;40.43;95026.16;5064209;28;20114;-73
2022/07/07 09:52:47;;;;;;;1.50;1.08;;;;;;;26.98;38.73;95035.47;5079429;28;20044;-72
2022/07/07 09:55:14;;;;;;;2.08;1.02;;;;;;;27.04;38.78;95036.81;5083285;28;20059;-72
2022/07/07 09:57:44;;;;;;;1.38;1.23;;;;;;;26.55;39.38;95031.28;5059341;28;20036;-72
2022/07/07 10:00:13;;;;;;;2.00;1.30;;;;;;;26.45;39.48;95033.25;5081467;28;20140;-72
2022/07/07 10:02:42;;;;;;;1.65;1.25;;;;;;;26.49;40.78;95034.16;5078739;28;20040;-72
2022/07/07 10:05:09;;;;;;;1.60;1.50;;;;;;;26.94;39.72;95026.53;5061389;28;20055;-71
2022/07/07 10:07:36;;;;;;;1.55;1.00;;;;;;;27.23;38.21;95018.34;5082153;28;20036;-72
2022/07/07 10:10:03;;;;;;;2.13;1.52;;;;;;;27.33;39.14;95021.72;5057539;28;20044;-71
2022/07/07 10:12:30;;;;;;;1.92;1.40;;;;;;;27.19;38.42;95030.84;5080846;28;20040;-72
2022/07/07 10:15:04;;;;;;;2.55;1.38;;;;;;;27.61;38.35;95033.31;5042024;28;21564;-73
2022/07/07 10:17:31;;;;;;;1.95;1.30;;;;;;;27.95;38.87;95030.56;5070690;28;20034;-72
2022/07/07 10:19:58;;;;;;;1.50;1.40;;;;;;;28.32;36.12;95028.56;5060808;28;20080;-71
2022/07/07 10:22:27;;;;;;;1.13;1.00;;;;;;;28.82;37.99;95023.03;5057906;28;20036;-69
2022/07/07 10:24:56;;;;;;;1.83;1.58;;;;;;;28.92;35.84;95033.28;5080235;28;20047;-69
2022/07/07 10:27:25;;;;;;;2.33;1.17;;;;;;;28.79;37.33;95019.94;5082820;28;20048;-68
2022/07/07 10:29:54;;;;;;;1.90;1.10;;;;;;;28.66;35.71;95023.78;5081005;28;20047;-69
2022/07/07 10:32:37;;;;;;;1.60;1.50;;;;;;;28.23;36.08;95014.53;5048802;28;20070;-69
2022/07/07 10:35:15;;;;;;;2.55;1.38;;;;;;;27.84;37.24;95016.81;5059591;28;20043;-70
2022/07/07 10:37:46;;;;;;;1.40;1.30;;;;;;;28.03;37.38;95019.69;5081209;28;20549;-72
2022/07/07 10:40:27;;;;;;;2.35;1.33;;;;;;;27.79;38.06;95017.06;5050716;28;20722;-72
2022/07/07 10:43:25;;;;;;;3.35;1.40;;;;;;;28.18;38.32;95018.22;5082126;28;20048;-71
2022/07/07 10:45:54;;;;;;;1.67;1.20;;;;;;;28.56;37.72;95010.88;5078708;28;20032;-68
2022/07/07 10:48:39;;;;;;;1.38;1.13;;;;;;;28.64;37.08;95019.88;5085145;28;20047;-71
2022/07/07 10:51:24;;;;;;;2.30;1.20;;;;;;;28.35;37.39;95011.03;5084950;28;20042;-69
2022/07/07 10:53:54;;;;;;;1.40;1.30;;;;;;;28.81;37.19;95011.56;5084757;28;20051;-72
2022/07/07 10:56:21;;;;;;;1.58;1.17;;;;;;;28.80;36.33;95009.97;5059433;28;20047;-71
2022/07/07 10:58:59;;;;;;;1.27;1.15;;;;;;;29.24;36.30;95009.19;5084756;28;20044;-71
2022/07/07 11:01:29;;;;;;;1.15;1.05;;;;;;;29.71;34.94;95003.78;5082834;28;20036;-70
2022/07/07 11:03:57;;;;;;;1.50;1.30;;;;;;;29.49;34.78;95007.88;5079677;28;20598;-70
2022/07/07 11:06:24;;;;;;;1.77;1.33;;;;;;;29.61;35.39;95008.91;5084844;28;20036;-71
2022/07/07 11:08:59;;;;;;;1.17;0.85;;;;;;;29.89;34.25;95008.78;5084302;28;20041;-72
2022/07/07 11:11:26;;;;;;;1.85;1.20;;;;;;;29.76;34.28;95008.13;5084537;28;20131;-70
2022/07/07 11:14:08;;;;;;;2.10;1.40;;;;;;;29.79;36.44;95004.75;5080992;28;20050;-71
2022/07/07 11:16:36;;;;;;;12.45;1.42;;;;;;;30.44;35.66;94990.00;5083100;28;20031;-70
2022/07/07 11:19:05;;;;;;;2.35;1.27;;;;;;;31.20;32.10;94997.50;5077917;28;20048;-72
2022/07/07 11:21:38;;;;;;;1.75;1.20;;;;;;;30.46;32.07;94998.47;5083621;28;20035;-70
2022/07/07 11:24:14;;;;;;;3.20;1.73;;;;;;;29.96;33.66;95000.88;5082384;28;20713;-71
2022/07/07 11:26:41;;;;;;;1.40;1.02;;;;;;;29.67;33.33;94988.72;5084202;28;20044;-70
2022/07/07 11:29:10;;;;;;;3.00;1.48;;;;;;;29.68;35.42;94985.69;5078031;28;20044;-70
2022/07/07 11:31:37;;;;;;;1.70;1.60;;;;;;;29.81;34.63;94983.69;5086754;28;20035;-70
2022/07/07 11:34:04;;;;;;;1.60;1.10;;;;;;;29.90;33.43;94978.91;5062483;28;20044;-70
2022/07/07 11:36:31;;;;;;;1.65;1.40;;;;;;;30.25;31.12;94972.72;5067753;28;20121;-70
2022/07/07 11:39:01;;;;;;;2.15;1.02;;;;;;;30.54;31.44;94973.31;5060625;28;20083;-71